createdAt,value
2019-02-21T00:00:39.331Z,2.03
2019-02-21T00:07:17.861Z,2.00
2019-02-21T00:13:48.644Z,2.05
2019-02-21T00:20:16.565Z,2.16
2019-02-21T00:26:49.453Z,2.12
2019-02-21T00:33:14.263Z,2.07
2019-02-21T00:39:48.168Z,2.04
2019-02-21T00:46:14.991Z,1.98
2019-02-21T00:52:53.942Z,1.98
2019-02-21T01:02:44.706Z,1.88
2019-02-21T01:12:20.490Z,1.80
2019-02-21T01:18:50.361Z,1.77
2019-02-21T01:25:17.187Z,1.73
2019-02-21T01:31:45.021Z,1.64
2019-02-21T01:38:27.769Z,1.64
2019-02-21T01:44:53.627Z,1.58
2019-02-21T01:51:22.684Z,1.55
2019-02-21T01:58:00.484Z,1.58
2019-02-21T02:04:27.447Z,1.59
2019-02-21T02:10:29.031Z,1.53
2019-02-21T02:16:45.664Z,1.57
2019-02-21T02:23:25.733Z,1.50
2019-02-21T02:29:51.293Z,1.53
2019-02-21T02:36:17.142Z,1.36
2019-02-21T02:42:56.106Z,1.36
2019-02-21T02:49:26.047Z,1.42
2019-02-21T02:55:56.874Z,1.38
2019-02-21T03:02:22.674Z,1.43
2019-02-21T03:08:49.327Z,1.33
2019-02-21T03:15:08.219Z,1.29
2019-02-21T03:21:34.263Z,1.30
2019-02-21T03:28:18.463Z,1.33
2019-02-21T03:34:44.090Z,1.30
2019-02-21T03:41:12.931Z,1.24
2019-02-21T03:47:50.890Z,1.23
2019-02-21T03:54:16.489Z,1.15
2019-02-21T04:00:43.157Z,1.16
2019-02-21T04:07:13.381Z,1.22
2019-02-21T04:16:43.698Z,1.24
2019-02-21T04:23:22.981Z,1.24
2019-02-21T04:29:48.801Z,1.25
2019-02-21T04:36:23.430Z,1.25
2019-02-21T04:42:49.532Z,1.28
2019-02-21T04:49:17.372Z,1.32
2019-02-21T04:55:45.213Z,1.33
2019-02-21T05:02:13.717Z,1.35
2019-02-21T05:08:51.864Z,1.45
2019-02-21T05:18:56.995Z,1.55
2019-02-21T05:25:25.841Z,1.60
2019-02-21T05:31:58.734Z,1.65
2019-02-21T05:38:54.852Z,1.74
2019-02-21T05:45:43.448Z,1.81
2019-02-21T05:52:39.485Z,1.86
2019-02-21T05:59:31.970Z,1.88
2019-02-21T06:06:38.324Z,1.92
2019-02-21T06:12:56.060Z,1.92
2019-02-21T06:19:28.953Z,1.89
2019-02-21T06:26:14.757Z,1.93
2019-02-21T06:29:09.687Z,1.89
2019-02-21T06:35:32.493Z,1.94
2019-02-21T06:42:00.520Z,1.97
2019-02-21T06:48:27.178Z,1.98
2019-02-21T06:55:09.140Z,2.04
2019-02-21T07:01:33.958Z,2.09
2019-02-21T07:08:03.587Z,2.17
2019-02-21T07:14:35.584Z,2.19
2019-02-21T07:21:02.523Z,2.20
2019-02-21T07:27:30.148Z,2.29
2019-02-21T07:33:57.191Z,2.35
2019-02-21T07:40:23.014Z,2.39
2019-02-21T07:47:01.959Z,2.46
2019-02-21T07:53:27.782Z,2.57
2019-02-21T07:59:29.168Z,2.59
2019-02-21T08:06:08.322Z,2.71
2019-02-21T08:12:34.142Z,2.84
2019-02-21T08:22:47.964Z,3.08
2019-02-21T08:29:14.046Z,3.23
2019-02-21T08:35:37.619Z,3.33
2019-02-21T08:41:44.466Z,3.46
2019-02-21T08:48:08.025Z,3.63
2019-02-21T08:54:21.986Z,3.80
2019-02-21T09:00:47.787Z,3.98
2019-02-21T09:07:26.389Z,4.14
2019-02-21T09:13:52.555Z,4.23
2019-02-21T09:23:31.282Z,4.40
2019-02-21T09:29:20.742Z,4.51
2019-02-21T09:35:49.590Z,4.66
2019-02-21T09:42:29.381Z,4.84
2019-02-21T09:49:05.471Z,5.04
2019-02-21T09:55:34.121Z,5.22
2019-02-21T10:02:11.025Z,5.39
2019-02-21T10:08:34.831Z,5.54
2019-02-21T10:14:58.628Z,5.68
2019-02-21T10:25:24.049Z,5.83
2019-02-21T10:31:27.423Z,5.93
2019-02-21T10:37:56.492Z,6.02
2019-02-21T10:44:26.367Z,6.12
2019-02-21T10:50:57.661Z,6.27
2019-02-21T10:57:37.182Z,6.47
2019-02-21T11:04:04.016Z,6.75
2019-02-21T11:10:29.833Z,7.07
2019-02-21T11:17:07.696Z,7.43
2019-02-21T11:26:56.604Z,7.96
2019-02-21T11:33:27.060Z,8.19
2019-02-21T11:39:55.314Z,8.50
2019-02-21T11:46:19.115Z,8.77
2019-02-21T11:52:57.714Z,9.10
2019-02-21T11:59:23.882Z,9.33
2019-02-21T12:05:17.575Z,9.53
2019-02-21T12:11:42.901Z,9.79
2019-02-21T12:18:24.175Z,9.85
2019-02-21T12:28:27.144Z,9.95
2019-02-21T12:34:52.963Z,9.99
2019-02-21T12:41:22.861Z,10.05
2019-02-21T12:47:57.518Z,10.17
2019-02-21T12:54:26.225Z,10.36
2019-02-21T13:00:52.404Z,10.54
2019-02-21T13:06:43.514Z,10.62
2019-02-21T13:17:10.085Z,10.67
2019-02-21T13:23:49.036Z,10.73
2019-02-21T13:30:06.559Z,10.81
2019-02-21T13:36:36.634Z,10.99
2019-02-21T13:43:15.587Z,11.05
2019-02-21T13:49:43.223Z,11.10
2019-02-21T13:56:10.253Z,11.15
2019-02-21T14:02:33.696Z,11.31
2019-02-21T14:09:12.646Z,11.44
2019-02-21T14:15:40.843Z,11.50
2019-02-21T14:22:06.665Z,11.48
2019-02-21T14:31:43.119Z,11.54
2019-02-21T14:38:27.938Z,11.88
2019-02-21T14:44:49.573Z,12.33
2019-02-21T14:51:14.974Z,12.35
2019-02-21T14:57:42.822Z,12.43
2019-02-21T15:04:21.765Z,12.32
2019-02-21T15:10:49.605Z,12.41
2019-02-21T15:17:15.200Z,12.41
2019-02-21T15:23:57.024Z,12.43
2019-02-21T15:34:02.024Z,12.37
2019-02-21T15:40:28.217Z,12.23
2019-02-21T15:46:56.058Z,12.25
2019-02-21T15:53:34.729Z,12.27
2019-02-21T16:00:02.617Z,12.24
2019-02-21T16:06:31.351Z,12.26
2019-02-21T16:13:04.203Z,12.16
2019-02-21T16:19:44.332Z,12.09
2019-02-21T16:26:11.373Z,11.94
2019-02-21T16:36:26.230Z,11.83
2019-02-21T16:42:52.091Z,11.60
2019-02-21T16:49:33.257Z,11.43
2019-02-21T16:55:58.070Z,11.29
2019-02-21T17:02:26.916Z,11.22
2019-02-21T17:09:08.658Z,10.98
2019-02-21T17:15:34.510Z,10.94
2019-02-21T17:22:04.459Z,10.74
2019-02-21T17:28:31.407Z,10.48
2019-02-21T17:38:14.811Z,10.27
2019-02-21T17:44:55.815Z,10.19
2019-02-21T17:51:25.763Z,10.04
2019-02-21T17:57:51.836Z,9.91
2019-02-21T18:04:31.402Z,9.73
2019-02-21T18:10:57.618Z,9.48
2019-02-21T18:17:26.549Z,9.43
2019-02-21T18:23:51.276Z,9.31
2019-02-21T18:30:17.101Z,9.23
2019-02-21T18:40:23.874Z,9.15
2019-02-21T18:46:49.928Z,9.06
2019-02-21T18:53:18.438Z,8.99
2019-02-21T18:59:59.751Z,8.94
2019-02-21T19:06:27.348Z,8.87
2019-02-21T19:12:53.199Z,8.75
2019-02-21T19:19:09.129Z,8.76
2019-02-21T19:25:48.076Z,8.74
2019-02-21T19:32:13.904Z,8.58
2019-02-21T19:42:29.667Z,8.49
2019-02-21T19:48:51.580Z,8.44
2019-02-21T19:55:30.371Z,8.32
2019-02-21T20:02:00.318Z,8.18
2019-02-21T20:08:28.217Z,8.13
2019-02-21T20:15:05.357Z,8.10
2019-02-21T20:21:30.973Z,8.13
2019-02-21T20:27:58.006Z,8.09
2019-02-21T20:34:21.804Z,8.05
2019-02-21T20:43:57.536Z,8.01
2019-02-21T20:50:35.449Z,7.93
2019-02-21T20:57:04.295Z,7.91
2019-02-21T21:03:31.127Z,7.88
2019-02-21T21:09:56.725Z,7.86
2019-02-21T21:16:33.874Z,7.85
2019-02-21T21:23:04.410Z,7.85
2019-02-21T21:29:34.347Z,7.80
2019-02-21T21:35:47.086Z,7.81
2019-02-21T21:46:00.278Z,7.80
2019-02-21T21:52:26.936Z,7.80
2019-02-21T21:58:59.075Z,7.75
2019-02-21T22:05:23.884Z,7.69
2019-02-21T22:11:48.593Z,7.57
2019-02-21T22:18:15.524Z,7.43
2019-02-21T22:24:41.106Z,7.37
2019-02-21T22:31:11.877Z,7.33
2019-02-21T22:37:00.445Z,7.37
2019-02-21T22:47:01.616Z,7.40
2019-02-21T22:53:27.190Z,7.42
2019-02-21T22:59:53.041Z,7.44
2019-02-21T23:06:45.104Z,7.43
2019-02-21T23:13:26.308Z,7.45
2019-02-21T23:20:03.022Z,7.45
2019-02-21T23:32:59.923Z,7.48
2019-02-21T23:38:49.025Z,7.51
2019-02-21T23:45:19.246Z,7.53
2019-02-21T23:51:46.868Z,7.51
2019-02-21T23:58:15.590Z,7.56
